Portada
METAR-TAF:

METAR-TAF

Aeroports :

Mahshahr, Iran

latitud: 30-33-23N, longitud: 049-09-07E, altitud: 2 m

Observació

L'informe es va fer fa 1 hora i 0 minuts, a les 13:00 UTC
Vent calma
Temperatura 21°C
Humitat 69%
Pressió 1012 hPa
Visibilitat 10 km o més
Cel ennuvolat a una alçada de 4000 ft

METAR: OIAM 051300Z 00000KT 9999 BKN040 21/15 Q1012

Hora: 17:30 (14:00 UTC)


TAF: manca

Observacions i pronòstics meteorològics de més de 4000 aeroports (METAR i TAF).

Les estacions disponibles són els punts grocs i vermells al mapa.

Posi el ratolí al punt desitjat per veure el nom de l'estació.

Feu clic per veure les observacions i els pronòstics meteorològics.

Per canviar el mapa: feu clic els botons verds amb una creu de color negre per apropar; al botó verd amb un guió per allunyar la imatge; o en les fletxes verdes per a mapes adjacents.


METAR-TAF: